Time;durP1;ratioP1;P1;durP2;ratioP2;P2;SDS_P1;SDS_P2;PMS_P1;PMS_P2;Temp;Humidity;BMP_temperature;BMP_pressure;BME280_temperature;BME280_humidity;BME280_pressure;Samples;Min_cycle;Max_cycle;Signal;HPM_P1;HPM_P2
2024/01/24 14:03:53;;;;;;;13.80;3.97;;;;;;;11.75;54.75;98619.88;5109446;27;20400;-71
2024/01/24 14:06:19;;;;;;;15.75;4.28;;;;;;;12.09;54.81;98675.56;5080158;28;20514;-72
2024/01/24 14:08:45;;;;;;;14.63;4.57;;;;;;;12.21;55.26;98700.66;5085038;28;20031;-73
2024/01/24 14:11:11;;;;;;;15.30;4.47;;;;;;;12.33;54.06;98704.09;5103216;28;20032;-72
2024/01/24 14:13:37;;;;;;;15.48;4.88;;;;;;;12.55;54.15;98684.50;5083637;28;20073;-73
2024/01/24 14:16:03;;;;;;;15.32;4.20;;;;;;;12.33;53.88;98655.50;5102578;28;20081;-73
2024/01/24 14:18:29;;;;;;;17.00;4.65;;;;;;;12.80;53.70;98688.41;5099772;28;20082;-73
2024/01/24 14:20:54;;;;;;;16.15;5.05;;;;;;;12.87;53.31;98672.84;5100944;28;20483;-72
2024/01/24 14:23:20;;;;;;;13.93;4.72;;;;;;;12.62;52.61;98650.84;5097953;28;20031;-72
2024/01/24 14:25:45;;;;;;;14.88;4.25;;;;;;;12.59;53.26;98691.03;5068471;28;20079;-73
2024/01/24 14:28:11;;;;;;;13.48;4.05;;;;;;;12.57;53.30;98702.09;5081338;28;20490;-73
2024/01/24 14:30:36;;;;;;;14.50;4.32;;;;;;;12.65;52.83;98679.25;5102055;28;20094;-73
2024/01/24 14:33:03;;;;;;;13.80;4.10;;;;;;;12.63;53.03;98689.47;5097347;28;20027;-73
2024/01/24 14:35:30;;;;;;;17.13;4.72;;;;;;;12.63;53.32;98702.97;5079609;28;20048;-73
2024/01/24 14:37:55;;;;;;;14.80;4.60;;;;;;;12.55;53.29;98714.22;5095458;28;20032;-73
2024/01/24 14:40:21;;;;;;;17.65;5.10;;;;;;;12.36;53.06;98714.44;5094558;28;20063;-73
2024/01/24 14:42:46;;;;;;;14.63;4.88;;;;;;;12.33;53.12;98709.50;5075880;28;20103;-72
2024/01/24 14:45:12;;;;;;;14.07;4.80;;;;;;;12.33;53.24;98701.41;5100049;28;20032;-73
2024/01/24 14:47:38;;;;;;;14.10;4.03;;;;;;;12.11;53.68;98710.44;5067371;28;20020;-73
2024/01/24 14:50:04;;;;;;;14.70;4.63;;;;;;;12.15;53.56;98731.31;5084046;28;20028;-72
2024/01/24 14:52:30;;;;;;;16.60;4.78;;;;;;;12.16;54.50;98702.44;5097775;28;20566;-72
2024/01/24 14:54:55;;;;;;;18.55;4.85;;;;;;;12.10;54.07;98736.63;5091073;28;20047;-72
2024/01/24 14:57:20;;;;;;;14.23;4.32;;;;;;;11.95;53.56;98736.31;5102754;28;20027;-72
2024/01/24 14:59:46;;;;;;;14.07;4.00;;;;;;;11.78;54.62;98727.34;5097154;28;20032;-73
2024/01/24 15:02:11;;;;;;;13.23;4.28;;;;;;;11.89;54.15;98723.78;5099839;28;20470;-73
2024/01/24 15:04:37;;;;;;;15.40;4.90;;;;;;;11.82;54.21;98765.47;5098743;28;20040;-73
2024/01/24 15:07:03;;;;;;;14.95;4.85;;;;;;;11.91;54.25;98759.44;5077390;28;20032;-73
2024/01/24 15:09:29;;;;;;;15.40;4.45;;;;;;;11.75;54.41;98738.59;5096213;28;20441;-72
2024/01/24 15:11:54;;;;;;;16.38;4.88;;;;;;;11.83;55.30;98754.44;5100987;28;20049;-72
2024/01/24 15:14:20;;;;;;;17.70;5.13;;;;;;;11.69;55.44;98744.97;5081814;28;20070;-73
2024/01/24 15:16:45;;;;;;;14.85;4.20;;;;;;;11.58;55.35;98753.84;5086797;28;20031;-73
2024/01/24 15:19:11;;;;;;;16.42;4.50;;;;;;;11.64;55.91;98758.31;5064215;28;20035;-72
2024/01/24 15:21:36;;;;;;;17.05;5.35;;;;;;;11.62;55.47;98773.94;5078454;28;20470;-73
2024/01/24 15:24:05;;;;;;;18.45;4.95;;;;;;;11.58;56.09;98778.13;5081530;28;20040;-73
2024/01/24 15:26:31;;;;;;;11.38;4.43;;;;;;;11.36;55.49;98766.31;5067722;28;20029;-72
2024/01/24 15:28:56;;;;;;;15.02;5.05;;;;;;;11.57;55.27;98780.03;5079118;28;20082;-72
2024/01/24 15:31:21;;;;;;;15.07;4.57;;;;;;;11.33;55.67;98751.44;5090844;28;20108;-72
2024/01/24 15:33:47;;;;;;;16.75;4.40;;;;;;;11.43;55.88;98784.03;5060141;28;20032;-73
2024/01/24 15:36:12;;;;;;;17.58;4.75;;;;;;;11.54;56.02;98801.25;5087366;28;20582;-73
2024/01/24 15:38:38;;;;;;;13.45;4.70;;;;;;;11.41;55.28;98790.72;5078062;28;20032;-72
2024/01/24 15:41:03;;;;;;;20.15;4.82;;;;;;;11.40;56.30;98799.84;5084729;28;20035;-72
2024/01/24 15:43:29;;;;;;;18.35;5.05;;;;;;;11.33;55.64;98772.16;5083210;28;20033;-73
2024/01/24 15:45:55;;;;;;;17.83;5.03;;;;;;;11.32;55.38;98786.72;5071533;28;20507;-73
2024/01/24 15:48:20;;;;;;;19.23;5.63;;;;;;;11.30;56.07;98813.91;5084823;28;20458;-73
2024/01/24 15:50:46;;;;;;;21.33;4.70;;;;;;;11.13;56.04;98793.28;5067127;28;20107;-71
2024/01/24 15:53:12;;;;;;;16.08;5.22;;;;;;;11.26;56.50;98810.03;5068365;28;20033;-73
2024/01/24 15:55:37;;;;;;;16.10;5.88;;;;;;;11.20;55.99;98804.78;5078575;28;20020;-73
2024/01/24 15:58:03;;;;;;;17.10;5.10;;;;;;;11.22;56.49;98816.13;5043338;28;20037;-72
2024/01/24 16:00:28;;;;;;;20.38;5.28;;;;;;;11.09;56.27;98799.13;5067716;28;20024;-72
2024/01/24 16:02:54;;;;;;;16.42;5.00;;;;;;;11.19;56.07;98830.06;5069355;28;20036;-72
2024/01/24 16:05:41;;;;;;;15.23;4.97;;;;;;;11.22;56.30;98813.44;5075731;28;20020;-72
2024/01/24 16:08:07;;;;;;;17.33;5.10;;;;;;;11.19;56.18;98819.28;5082697;28;20036;-73
2024/01/24 16:10:33;;;;;;;15.70;5.07;;;;;;;11.05;56.69;98841.09;5090776;28;21370;-73
2024/01/24 16:12:58;;;;;;;12.73;4.47;;;;;;;11.00;56.91;98832.88;5062669;28;20113;-71
2024/01/24 16:15:23;;;;;;;13.20;4.70;;;;;;;11.10;56.67;98843.91;5077861;28;20024;-72
2024/01/24 16:17:49;;;;;;;19.70;4.70;;;;;;;10.93;56.39;98842.09;5074561;28;20032;-72
2024/01/24 16:20:14;;;;;;;17.17;5.47;;;;;;;11.19;56.32;98857.03;5079675;28;20491;-72
2024/01/24 16:22:40;;;;;;;13.90;5.07;;;;;;;11.13;56.73;98862.28;5051414;28;20039;-72
2024/01/24 16:25:05;;;;;;;17.35;4.95;;;;;;;11.21;56.61;98858.44;5076786;28;20495;-72
2024/01/24 16:27:34;;;;;;;19.45;5.47;;;;;;;11.22;56.40;98878.97;5065121;28;20032;-72
2024/01/24 16:30:00;;;;;;;16.45;5.45;;;;;;;11.12;56.77;98867.94;5075773;28;20484;-73
2024/01/24 16:32:26;;;;;;;16.83;5.43;;;;;;;11.19;57.07;98895.59;5059457;28;20146;-73
2024/01/24 16:34:51;;;;;;;14.98;6.18;;;;;;;11.10;56.99;98876.25;5058641;28;20111;-72
2024/01/24 16:37:17;;;;;;;16.92;4.85;;;;;;;11.04;57.31;98871.78;5041216;28;20385;-71
2024/01/24 16:39:42;;;;;;;16.98;6.10;;;;;;;11.07;57.11;98892.88;5083393;28;20116;-72
2024/01/24 16:42:07;;;;;;;16.33;5.07;;;;;;;11.04;57.04;98904.13;5057507;28;20041;-73
2024/01/24 16:44:33;;;;;;;19.60;5.80;;;;;;;11.15;57.19;98904.38;5080190;28;20043;-72
2024/01/24 16:46:58;;;;;;;21.40;5.75;;;;;;;11.15;57.73;98912.47;5041094;28;20028;-72
2024/01/24 16:49:24;;;;;;;19.00;5.72;;;;;;;11.13;57.49;98882.22;5070496;28;20650;-73
2024/01/24 16:51:50;;;;;;;18.42;5.85;;;;;;;11.10;57.77;98902.38;5080740;28;20124;-72
2024/01/24 16:54:15;;;;;;;19.23;6.55;;;;;;;11.07;58.03;98894.75;5084955;28;20115;-75
2024/01/24 16:56:41;;;;;;;32.72;19.55;;;;;;;11.00;58.40;98883.25;5075279;28;20394;-73
2024/01/24 16:59:06;;;;;;;22.92;7.78;;;;;;;11.04;58.28;98896.03;5062644;28;20020;-74
2024/01/24 17:01:31;;;;;;;17.92;5.55;;;;;;;10.88;58.50;98877.81;5073373;28;20028;-73
2024/01/24 17:03:57;;;;;;;22.25;6.47;;;;;;;10.99;58.55;98903.97;5083833;28;20039;-72
2024/01/24 17:06:23;;;;;;;15.48;5.32;;;;;;;10.97;58.72;98910.66;5085432;28;20054;-73
2024/01/24 17:08:48;;;;;;;18.02;5.97;;;;;;;10.86;59.09;98898.78;5077036;28;20505;-74
2024/01/24 17:11:15;;;;;;;24.63;6.43;;;;;;;10.76;59.52;98893.13;5084134;28;20037;-72
2024/01/24 17:13:40;;;;;;;21.60;5.50;;;;;;;10.84;59.17;98910.84;5082399;28;20015;-72
2024/01/24 17:16:06;;;;;;;21.67;6.25;;;;;;;10.80;59.76;98918.56;5077452;28;20024;-72
2024/01/24 17:18:32;;;;;;;17.13;5.57;;;;;;;10.79;60.26;98916.09;5076067;28;20032;-72
2024/01/24 17:20:57;;;;;;;21.02;6.07;;;;;;;10.79;60.16;98927.69;5074945;28;20055;-72
2024/01/24 17:23:22;;;;;;;18.15;5.90;;;;;;;10.66;60.51;98925.19;5067944;28;20487;-72
2024/01/24 17:25:48;;;;;;;20.15;6.57;;;;;;;10.64;60.98;98929.94;5073831;28;20077;-72
2024/01/24 17:28:13;;;;;;;21.63;6.80;;;;;;;10.70;60.87;98934.44;5085348;28;20077;-71
2024/01/24 17:30:39;;;;;;;18.98;6.25;;;;;;;10.58;61.08;98919.25;5079694;28;20574;-72
2024/01/24 17:33:04;;;;;;;26.92;6.20;;;;;;;10.52;61.40;98921.00;5085321;28;20486;-73
2024/01/24 17:35:30;;;;;;;22.88;6.38;;;;;;;10.54;61.54;98940.47;5067410;28;20039;-72
2024/01/24 17:37:55;;;;;;;21.55;6.45;;;;;;;10.39;61.81;98918.47;5078192;28;20040;-74
2024/01/24 17:40:20;;;;;;;20.58;5.75;;;;;;;10.47;62.06;98944.28;5074200;28;20430;-73
2024/01/24 17:42:46;;;;;;;22.73;7.32;;;;;;;10.39;62.18;98937.31;5037381;28;20017;-72
2024/01/24 17:45:12;;;;;;;22.42;6.03;;;;;;;10.33;62.13;98922.06;5055378;28;20406;-71
2024/01/24 17:47:40;;;;;;;22.35;6.47;;;;;;;10.25;62.36;98925.03;5072850;28;20095;-73
2024/01/24 17:50:06;;;;;;;30.48;6.78;;;;;;;10.46;61.93;98954.22;5073264;28;20059;-73
2024/01/24 17:52:31;;;;;;;25.70;7.93;;;;;;;10.22;62.34;98931.69;5071673;28;20020;-73
2024/01/24 17:55:00;;;;;;;22.13;6.75;;;;;;;10.36;62.34;98959.31;5070062;28;20062;-73
2024/01/24 17:57:26;;;;;;;22.48;6.22;;;;;;;10.39;62.25;98956.16;5073616;28;20128;-73
2024/01/24 17:59:51;;;;;;;22.55;7.13;;;;;;;10.28;62.63;98951.53;5077919;28;20148;-73
2024/01/24 18:02:16;;;;;;;19.77;6.22;;;;;;;10.33;62.48;98967.84;5075291;28;20108;-72
2024/01/24 18:04:42;;;;;;;25.13;6.28;;;;;;;10.11;62.61;98939.66;5074174;28;20055;-73
2024/01/24 18:07:07;;;;;;;26.73;7.50;;;;;;;9.97;63.03;98927.38;5056813;28;20090;-72
2024/01/24 18:09:33;;;;;;;18.65;5.80;;;;;;;10.13;62.65;98951.06;5073909;28;20051;-73
2024/01/24 18:11:59;;;;;;;20.65;6.18;;;;;;;10.14;62.41;98955.41;5071956;28;20349;-72
2024/01/24 18:14:25;;;;;;;18.48;6.65;;;;;;;10.28;62.45;98983.84;5075494;28;20025;-72
2024/01/24 18:16:50;;;;;;;19.60;7.63;;;;;;;10.23;62.42;98975.59;5069070;28;20023;-72
2024/01/24 18:19:15;;;;;;;22.08;7.90;;;;;;;10.24;62.41;98990.72;5071905;28;20414;-72
2024/01/24 18:21:41;;;;;;;19.25;6.65;;;;;;;10.19;62.69;98993.25;5055894;28;20443;-72
2024/01/24 18:24:08;;;;;;;25.33;6.57;;;;;;;10.28;62.73;98994.59;5071920;28;20039;-73
2024/01/24 18:26:34;;;;;;;27.02;9.77;;;;;;;10.26;63.08;99002.09;5072091;28;20503;-72
2024/01/24 18:29:00;;;;;;;28.13;8.70;;;;;;;9.97;63.26;98959.66;5055779;28;20056;-72
2024/01/24 18:31:26;;;;;;;26.20;8.77;;;;;;;10.18;63.72;98994.28;5050935;28;20029;-73
2024/01/24 18:33:51;;;;;;;21.45;6.65;;;;;;;10.12;63.18;98984.41;5071384;28;20037;-72
2024/01/24 18:36:17;;;;;;;20.77;6.53;;;;;;;10.13;63.58;98991.41;5073631;28;20399;-72
2024/01/24 18:38:43;;;;;;;24.52;7.03;;;;;;;10.20;63.32;99002.94;5057828;28;20048;-73
2024/01/24 18:41:15;;;;;;;20.08;6.65;;;;;;;10.11;64.06;99009.63;5071616;28;20016;-73
2024/01/24 18:43:41;;;;;;;22.55;6.88;;;;;;;9.99;64.72;99006.03;5061853;28;20044;-72
2024/01/24 18:46:06;;;;;;;22.38;7.03;;;;;;;9.82;65.43;99004.94;5076821;28;20078;-73
2024/01/24 18:48:32;;;;;;;21.33;6.03;;;;;;;9.67;66.48;99003.41;5077800;28;20403;-72
2024/01/24 18:50:57;;;;;;;22.73;6.53;;;;;;;9.86;65.85;98995.38;5082856;28;20020;-71
2024/01/24 18:53:23;;;;;;;22.20;7.57;;;;;;;9.78;66.25;98996.47;5089247;28;20105;-73
2024/01/24 18:55:48;;;;;;;23.05;8.05;;;;;;;9.79;66.73;98989.22;5063137;28;20111;-72
2024/01/24 18:58:13;;;;;;;28.10;7.80;;;;;;;9.79;66.34;98984.69;5068267;28;20110;-72
2024/01/24 19:00:39;;;;;;;26.75;8.45;;;;;;;9.91;66.60;99009.00;5076408;28;20047;-72
2024/01/24 19:03:05;;;;;;;22.65;7.80;;;;;;;9.91;66.46;99009.00;5080064;28;20040;-72
2024/01/24 19:05:30;;;;;;;29.08;12.20;;;;;;;9.84;66.89;99008.22;5078005;28;20031;-73
2024/01/24 19:07:56;;;;;;;31.20;8.57;;;;;;;9.80;66.61;99005.16;5082077;28;20041;-72
2024/01/24 19:10:21;;;;;;;23.98;7.80;;;;;;;9.77;66.64;99008.28;5062858;28;20070;-72
2024/01/24 19:12:47;;;;;;;28.80;7.75;;;;;;;9.67;66.91;99003.41;5087192;28;20490;-72
2024/01/24 19:15:12;;;;;;;22.52;7.18;;;;;;;9.54;66.72;98992.75;5089507;28;20032;-73
2024/01/24 19:17:38;;;;;;;21.65;6.70;;;;;;;9.63;67.09;99002.19;5072737;22;20041;-72
2024/01/24 19:20:04;;;;;;;23.85;7.38;;;;;;;9.57;66.33;98981.53;4995770;28;20026;-73
2024/01/24 19:22:30;;;;;;;26.98;7.45;;;;;;;9.44;67.12;98965.53;4979996;28;20038;-73
2024/01/24 19:24:56;;;;;;;25.50;8.63;;;;;;;9.59;66.80;99009.03;5014939;28;20389;-74
2024/01/24 19:27:21;;;;;;;24.90;8.00;;;;;;;9.60;66.54;99013.38;5010535;28;20037;-73
2024/01/24 19:29:46;;;;;;;23.98;7.50;;;;;;;9.56;66.21;99017.56;4984876;28;20030;-73
2024/01/24 19:32:13;;;;;;;21.42;7.07;;;;;;;9.61;66.04;99025.75;4982265;28;20039;-73
2024/01/24 19:34:38;;;;;;;22.33;6.75;;;;;;;9.52;65.72;99000.19;4981953;28;20022;-74
2024/01/24 19:37:04;;;;;;;25.60;7.30;;;;;;;9.49;65.63;99011.41;4988154;28;20142;-73
2024/01/24 19:39:29;;;;;;;25.48;7.45;;;;;;;9.46;65.65;99003.75;4995735;28;20694;-73
2024/01/24 19:41:55;;;;;;;18.42;7.28;;;;;;;9.58;65.07;99034.28;5004339;28;20177;-73
2024/01/24 19:44:20;;;;;;;23.70;7.40;;;;;;;9.39;65.08;98997.59;4985187;28;20030;-74
2024/01/24 19:46:45;;;;;;;25.38;7.00;;;;;;;9.52;65.20;99032.44;4995535;28;20034;-73
2024/01/24 19:49:11;;;;;;;18.63;6.60;;;;;;;9.59;64.89;99049.38;4999320;28;20026;-73
2024/01/24 19:51:37;;;;;;;23.58;7.10;;;;;;;9.56;65.06;99036.38;4990001;28;20045;-73
2024/01/24 19:54:03;;;;;;;23.48;6.80;;;;;;;9.39;64.87;99020.97;4998089;28;20034;-73
2024/01/24 19:56:29;;;;;;;22.52;7.05;;;;;;;9.54;64.73;99040.31;5002899;28;20042;-73
2024/01/24 19:58:56;;;;;;;19.48;6.35;;;;;;;9.65;64.37;99048.50;5008267;28;20144;-74
2024/01/24 20:01:22;;;;;;;21.88;6.55;;;;;;;9.66;64.73;99057.41;5003292;28;20033;-74
2024/01/24 20:03:47;;;;;;;23.05;6.82;;;;;;;9.63;64.52;99055.97;4999979;28;20109;-73
2024/01/24 20:06:14;;;;;;;26.60;6.65;;;;;;;9.62;64.51;99048.94;4984706;28;20037;-73
2024/01/24 20:08:40;;;;;;;24.35;7.07;;;;;;;9.63;64.50;99058.66;4992247;28;20026;-72
2024/01/24 20:11:05;;;;;;;20.90;6.55;;;;;;;9.52;64.45;99045.91;4995971;28;20089;-73
2024/01/24 20:13:32;;;;;;;21.98;6.10;;;;;;;9.42;64.90;99026.75;4995003;28;20097;-73
2024/01/24 20:15:58;;;;;;;22.63;7.30;;;;;;;9.49;64.86;99053.59;5003608;28;20134;-72
2024/01/24 20:18:23;;;;;;;20.02;7.00;;;;;;;9.30;64.59;99023.09;4994162;28;20120;-73
2024/01/24 20:20:49;;;;;;;27.00;6.57;;;;;;;9.35;64.57;99025.13;4994033;28;20096;-72
2024/01/24 20:23:14;;;;;;;22.92;6.47;;;;;;;9.54;64.27;99049.22;5001459;28;20068;-74
2024/01/24 20:25:40;;;;;;;20.88;6.47;;;;;;;9.36;64.79;99016.84;4992768;28;20045;-72
2024/01/24 20:28:05;;;;;;;24.17;6.80;;;;;;;9.44;64.00;99023.84;4997823;28;20026;-73
2024/01/24 20:30:31;;;;;;;20.52;6.30;;;;;;;9.56;65.03;99039.06;5003691;28;20093;-73
2024/01/24 20:32:56;;;;;;;22.10;6.55;;;;;;;9.47;64.19;99035.00;4982355;28;20489;-73
2024/01/24 20:35:21;;;;;;;16.45;5.40;;;;;;;9.44;64.11;99046.16;4984272;28;20038;-73
2024/01/24 20:37:47;;;;;;;21.83;6.20;;;;;;;9.35;63.98;99039.41;4987206;28;20036;-72
2024/01/24 20:40:12;;;;;;;23.60;7.15;;;;;;;9.41;64.28;99024.25;4987194;28;20034;-72
2024/01/24 20:42:37;;;;;;;17.15;6.35;;;;;;;9.56;64.53;99044.44;4980904;28;20033;-73
2024/01/24 20:45:03;;;;;;;25.65;7.10;;;;;;;9.54;64.60;99032.25;4987816;28;20061;-73
2024/01/24 20:47:29;;;;;;;28.58;7.25;;;;;;;9.39;64.13;99019.09;4994813;28;20410;-73
2024/01/24 20:49:55;;;;;;;25.27;7.38;;;;;;;9.41;64.48;99019.72;4986932;28;20086;-73
2024/01/24 20:52:20;;;;;;;23.52;6.63;;;;;;;9.52;64.64;99048.59;4994360;28;20485;-73
2024/01/24 20:54:45;;;;;;;16.98;6.40;;;;;;;9.48;65.04;99042.00;4984895;28;20036;-74
2024/01/24 20:57:11;;;;;;;25.95;7.43;;;;;;;9.52;64.56;99037.03;5006039;28;20026;-73
2024/01/24 20:59:37;;;;;;;22.05;6.70;;;;;;;9.58;64.92;99046.91;4995281;28;20038;-72
2024/01/24 21:02:02;;;;;;;19.75;6.53;;;;;;;9.45;65.36;99044.31;5002928;28;20496;-73
2024/01/24 21:04:28;;;;;;;24.27;6.88;;;;;;;9.33;65.04;99036.13;4993349;28;20038;-73
2024/01/24 21:06:53;;;;;;;22.88;6.20;;;;;;;9.36;64.99;99054.47;4976413;28;20102;-73
2024/01/24 21:09:19;;;;;;;20.20;6.68;;;;;;;9.26;65.34;99032.63;4997805;28;20049;-72
2024/01/24 21:11:44;;;;;;;20.13;6.45;;;;;;;9.37;65.33;99040.00;4986425;28;20456;-72
2024/01/24 21:14:09;;;;;;;23.98;6.68;;;;;;;9.36;65.33;99049.09;5003948;28;20142;-73
2024/01/24 21:16:35;;;;;;;22.27;6.40;;;;;;;9.27;65.75;99045.03;4996604;28;20021;-72
2024/01/24 21:19:02;;;;;;;21.50;5.97;;;;;;;9.28;65.64;99046.69;4987485;28;20121;-72
2024/01/24 21:21:28;;;;;;;23.48;6.53;;;;;;;9.10;65.59;99026.94;5000406;28;20548;-71
2024/01/24 21:23:53;;;;;;;21.27;6.75;;;;;;;9.18;65.54;99050.84;4995609;28;20038;-72
2024/01/24 21:26:19;;;;;;;22.60;6.55;;;;;;;9.26;65.37;99056.81;4991485;28;20052;-73
2024/01/24 21:28:44;;;;;;;20.60;6.80;;;;;;;9.18;65.53;99062.44;4993661;28;20116;-72
2024/01/24 21:31:11;;;;;;;19.70;5.97;;;;;;;9.08;65.93;99059.38;5007953;28;20023;-73
2024/01/24 21:33:36;;;;;;;21.30;6.40;;;;;;;8.91;66.24;99017.94;4989257;28;20113;-72
2024/01/24 21:36:02;;;;;;;21.67;5.75;;;;;;;9.02;65.70;99036.88;4998307;28;20630;-72
2024/01/24 21:38:27;;;;;;;21.30;6.05;;;;;;;9.01;66.35;99045.16;5004927;28;20501;-72
2024/01/24 21:40:52;;;;;;;24.98;7.05;;;;;;;9.03;65.97;99045.78;4976193;28;20422;-74
2024/01/24 21:43:18;;;;;;;25.13;7.00;;;;;;;9.12;66.25;99062.47;4976018;28;20034;-73
2024/01/24 21:45:43;;;;;;;22.75;6.93;;;;;;;8.94;66.15;99055.09;4974931;28;20030;-73
2024/01/24 21:48:09;;;;;;;27.02;7.43;;;;;;;9.05;66.25;99073.25;4980181;28;20390;-74
2024/01/24 21:50:34;;;;;;;27.88;7.00;;;;;;;9.00;66.28;99081.13;5000037;28;20422;-74
2024/01/24 21:52:59;;;;;;;24.38;6.80;;;;;;;9.01;66.37;99083.59;5005125;28;20401;-74
2024/01/24 21:55:25;;;;;;;24.02;7.28;;;;;;;9.05;66.32;99089.38;5000278;28;20022;-73
2024/01/24 21:57:52;;;;;;;21.95;7.15;;;;;;;9.05;66.57;99070.56;4995101;28;20049;-73
2024/01/24 22:00:18;;;;;;;24.27;7.00;;;;;;;9.02;66.39;99089.78;5000593;28;20026;-73
2024/01/24 22:02:43;;;;;;;28.90;6.72;;;;;;;8.96;66.61;99079.91;4994273;28;20033;-72
2024/01/24 22:05:09;;;;;;;27.10;6.72;;;;;;;8.96;66.34;99074.53;5005934;28;20056;-73
2024/01/24 22:07:34;;;;;;;22.05;6.15;;;;;;;8.97;66.14;99074.31;4989266;28;20038;-73
2024/01/24 22:09:59;;;;;;;22.20;7.45;;;;;;;8.98;66.40;99056.34;4987354;28;20060;-73
2024/01/24 22:12:25;;;;;;;23.95;6.70;;;;;;;8.95;66.05;99056.75;4977514;28;20027;-73
2024/01/24 22:14:50;;;;;;;21.10;6.63;;;;;;;9.16;66.22;99077.94;5001646;28;20030;-73
2024/01/24 22:17:16;;;;;;;25.35;7.43;;;;;;;9.02;66.24;99053.00;4994562;28;20520;-73
2024/01/24 22:19:41;;;;;;;26.55;6.90;;;;;;;9.03;66.01;99075.34;4983180;28;20061;-72
2024/01/24 22:22:06;;;;;;;24.83;7.05;;;;;;;9.10;65.98;99086.03;4979286;28;20038;-73
2024/01/24 22:24:32;;;;;;;22.77;6.80;;;;;;;9.13;66.22;99078.38;4999158;28;20406;-73
2024/01/24 22:26:57;;;;;;;25.38;7.35;;;;;;;8.96;66.43;99047.66;4990630;28;20042;-72
2024/01/24 22:29:22;;;;;;;22.63;6.50;;;;;;;9.05;66.16;99065.19;4982269;28;20034;-71
2024/01/24 22:31:48;;;;;;;23.92;6.55;;;;;;;9.16;66.26;99080.63;5010151;28;20038;-72
2024/01/24 22:34:13;;;;;;;24.45;6.82;;;;;;;8.99;66.44;99050.75;5004338;28;20035;-71
2024/01/24 22:36:38;;;;;;;19.05;6.32;;;;;;;9.15;66.07;99078.97;4984851;28;20046;-73
2024/01/24 22:39:05;;;;;;;24.25;6.47;;;;;;;8.96;66.53;99043.09;4969246;28;20022;-72
2024/01/24 22:41:30;;;;;;;24.23;6.35;;;;;;;9.11;66.63;99075.06;4998793;28;20041;-72
2024/01/24 22:43:55;;;;;;;27.40;6.88;;;;;;;8.98;66.50;99050.97;5007104;28;20030;-75
2024/01/24 22:46:21;;;;;;;21.88;7.32;;;;;;;8.98;66.17;99046.38;4997957;28;20711;-74
2024/01/24 22:48:47;;;;;;;24.98;6.85;;;;;;;9.01;66.37;99050.50;5004606;28;20045;-74
2024/01/24 22:51:13;;;;;;;25.00;6.97;;;;;;;9.04;66.61;99044.72;4998166;28;20493;-74
2024/01/24 22:53:40;;;;;;;21.00;6.72;;;;;;;9.00;66.98;99049.72;5003062;28;20022;-74
2024/01/24 22:56:05;;;;;;;23.35;6.95;;;;;;;9.00;67.04;99055.09;4989055;28;20515;-73
2024/01/24 22:58:31;;;;;;;22.60;6.90;;;;;;;8.95;66.89;99057.59;4999930;28;20026;-72
2024/01/24 23:00:56;;;;;;;22.13;6.93;;;;;;;8.94;67.03;99060.47;5000135;28;20084;-72
2024/01/24 23:03:21;;;;;;;25.02;7.05;;;;;;;9.01;67.51;99080.06;4997134;28;20030;-71
2024/01/24 23:05:47;;;;;;;21.35;6.93;;;;;;;8.96;67.50;99079.91;5008742;28;20134;-72
2024/01/24 23:08:12;;;;;;;25.63;7.60;;;;;;;8.93;67.06;99080.31;4979087;28;20026;-71
2024/01/24 23:10:38;;;;;;;21.85;6.15;;;;;;;8.75;67.58;99066.75;5009799;28;20065;-70
2024/01/24 23:13:03;;;;;;;28.90;7.60;;;;;;;8.87;67.44;99081.16;4994534;28;20432;-70
2024/01/24 23:15:29;;;;;;;21.98;7.05;;;;;;;8.83;68.20;99063.81;5009415;28;20048;-71
2024/01/24 23:17:54;;;;;;;22.65;6.78;;;;;;;8.84;68.19;99081.59;4994303;28;20027;-71
2024/01/24 23:20:20;;;;;;;25.40;7.43;;;;;;;8.88;68.55;99098.94;4999420;28;20581;-71
2024/01/24 23:22:45;;;;;;;28.33;7.55;;;;;;;8.86;68.84;99095.63;4993831;28;20072;-71
2024/01/24 23:25:11;;;;;;;22.95;7.22;;;;;;;8.77;68.85;99099.59;4988435;28;20046;-72
2024/01/24 23:27:36;;;;;;;28.67;7.20;;;;;;;8.67;68.81;99083.06;4998334;28;20101;-71
2024/01/24 23:30:02;;;;;;;25.80;6.95;;;;;;;8.81;68.66;99095.44;5007138;28;20096;-72
2024/01/24 23:32:27;;;;;;;25.23;7.43;;;;;;;8.73;68.90;99085.75;4981473;28;20097;-72
2024/01/24 23:34:52;;;;;;;21.70;6.05;;;;;;;8.65;69.81;99101.25;4988470;28;20040;-72
2024/01/24 23:37:18;;;;;;;27.25;7.82;;;;;;;8.63;69.07;99101.47;4999792;28;20109;-72
2024/01/24 23:39:43;;;;;;;21.38;6.65;;;;;;;8.47;69.70;99074.25;5001619;28;20390;-72
2024/01/24 23:42:10;;;;;;;23.42;7.63;;;;;;;8.58;69.48;99095.09;4995645;28;20031;-72
2024/01/24 23:44:38;;;;;;;26.40;7.68;;;;;;;8.60;70.28;99106.44;5009121;28;20037;-72
2024/01/24 23:47:04;;;;;;;27.90;7.22;;;;;;;8.58;69.82;99108.50;4994589;28;20100;-72
2024/01/24 23:49:29;;;;;;;26.30;7.30;;;;;;;8.44;70.06;99090.78;5007981;28;20487;-71
2024/01/24 23:51:55;;;;;;;24.92;7.65;;;;;;;8.33;70.33;99071.56;4994316;28;20030;-71
2024/01/24 23:54:20;;;;;;;29.02;8.77;;;;;;;8.30;70.45;99074.69;4990268;28;20045;-72
2024/01/24 23:56:45;;;;;;;28.95;7.80;;;;;;;8.45;70.32;99111.22;4987862;28;20026;-72
2024/01/24 23:59:11;;;;;;;28.10;8.02;;;;;;;8.32;70.59;99087.88;5007763;28;20414;-73
